createdAt,value
2023-03-10T00:01:23.869Z,12.43
2023-03-10T00:03:52.265Z,12.44
2023-03-10T00:06:25.730Z,12.49
2023-03-10T00:08:54.355Z,12.51
2023-03-10T00:11:24.361Z,12.49
2023-03-10T00:13:53.215Z,12.45
2023-03-10T00:16:24.683Z,12.44
2023-03-10T00:18:54.152Z,12.45
2023-03-10T00:21:25.444Z,12.43
2023-03-10T00:23:54.584Z,12.40
2023-03-10T00:26:27.897Z,12.39
2023-03-10T00:28:56.875Z,12.39
2023-03-10T00:31:27.364Z,12.37
2023-03-10T00:33:57.750Z,12.36
2023-03-10T00:36:29.903Z,12.33
2023-03-10T00:39:04.694Z,12.31
2023-03-10T00:41:36.456Z,12.22
2023-03-10T00:44:05.544Z,12.20
2023-03-10T00:46:34.648Z,12.18
2023-03-10T00:49:03.520Z,12.16
2023-03-10T00:51:31.900Z,12.14
2023-03-10T00:54:01.804Z,12.13
2023-03-10T00:56:31.688Z,12.09
2023-03-10T00:59:01.974Z,12.05
2023-03-10T01:01:33.665Z,12.03
2023-03-10T01:04:05.021Z,12.02
2023-03-10T01:06:34.002Z,11.99
2023-03-10T01:09:02.962Z,11.97
2023-03-10T01:11:32.051Z,11.97
2023-03-10T01:14:05.445Z,11.96
2023-03-10T01:16:34.033Z,11.96
2023-03-10T01:19:02.846Z,11.94
2023-03-10T01:21:33.944Z,11.91
2023-03-10T01:24:03.158Z,11.90
2023-03-10T01:26:32.485Z,11.86
2023-03-10T01:29:02.201Z,11.84
2023-03-10T01:31:30.865Z,11.82
2023-03-10T01:33:59.818Z,11.81
2023-03-10T01:36:29.594Z,11.81
2023-03-10T01:38:58.781Z,11.76
2023-03-10T01:41:27.466Z,11.71
2023-03-10T01:43:57.721Z,11.65
2023-03-10T01:46:50.740Z,11.60
2023-03-10T01:49:36.159Z,11.56
2023-03-10T01:52:09.849Z,11.54
2023-03-10T01:54:49.481Z,11.48
2023-03-10T01:57:21.482Z,11.46
2023-03-10T01:59:51.363Z,11.43
2023-03-10T02:02:23.077Z,11.40
2023-03-10T02:04:53.905Z,11.37
2023-03-10T02:07:27.598Z,11.34
2023-03-10T02:09:57.230Z,11.33
2023-03-10T02:12:25.780Z,11.29
2023-03-10T02:14:55.288Z,11.27
2023-03-10T02:17:27.426Z,11.24
2023-03-10T02:20:20.350Z,11.18
2023-03-10T02:22:49.552Z,11.17
2023-03-10T02:25:34.018Z,11.13
2023-03-10T02:28:04.662Z,11.12
2023-03-10T02:30:38.593Z,11.09
2023-03-10T02:33:10.929Z,11.07
2023-03-10T02:35:40.031Z,11.05
2023-03-10T02:38:13.340Z,11.02
2023-03-10T02:40:46.071Z,11.02
2023-03-10T02:43:23.383Z,11.01
2023-03-10T02:46:00.152Z,11.00
2023-03-10T02:48:32.980Z,11.00
2023-03-10T02:51:05.849Z,11.01
2023-03-10T02:53:34.501Z,11.02
2023-03-10T02:56:02.825Z,11.04
2023-03-10T02:58:35.304Z,11.05
2023-03-10T03:01:06.666Z,11.06
2023-03-10T03:03:39.878Z,11.07
2023-03-10T03:06:09.242Z,11.09
2023-03-10T03:08:37.871Z,11.09
2023-03-10T03:11:08.495Z,11.08
2023-03-10T03:13:38.163Z,11.08
2023-03-10T03:16:08.527Z,11.06
2023-03-10T03:18:38.360Z,11.04
2023-03-10T03:21:10.500Z,11.02
2023-03-10T03:23:40.394Z,11.01
2023-03-10T03:26:17.628Z,10.97
2023-03-10T03:28:47.388Z,10.97
2023-03-10T03:31:19.573Z,10.96
2023-03-10T03:33:49.439Z,10.95
2023-03-10T03:36:18.443Z,10.93
2023-03-10T03:38:47.661Z,10.93
2023-03-10T03:41:17.992Z,10.89
2023-03-10T03:43:47.709Z,10.88
2023-03-10T03:46:16.328Z,10.88
2023-03-10T03:48:45.239Z,10.87
2023-03-10T03:51:14.384Z,10.86
2023-03-10T03:53:44.216Z,10.84
2023-03-10T03:56:13.315Z,10.83
2023-03-10T03:58:45.119Z,10.81
2023-03-10T04:01:15.154Z,10.81
2023-03-10T04:03:48.294Z,10.74
2023-03-10T04:06:18.425Z,10.74
2023-03-10T04:08:50.037Z,10.75
2023-03-10T04:11:19.153Z,10.75
2023-03-10T04:13:49.770Z,10.74
2023-03-10T04:16:20.217Z,10.75
2023-03-10T04:18:49.025Z,10.74
2023-03-10T04:21:18.574Z,10.74
2023-03-10T04:23:49.785Z,10.74
2023-03-10T04:26:21.949Z,10.74
2023-03-10T04:28:51.163Z,10.74
2023-03-10T04:31:22.571Z,10.74
2023-03-10T04:33:52.781Z,10.73
2023-03-10T04:36:21.975Z,10.71
2023-03-10T04:38:54.793Z,10.71
2023-03-10T04:41:26.483Z,10.72
2023-03-10T04:43:55.258Z,10.72
2023-03-10T04:46:24.915Z,10.72
2023-03-10T04:48:55.779Z,10.76
2023-03-10T04:51:24.282Z,10.79
2023-03-10T04:53:54.818Z,10.85
2023-03-10T04:56:25.103Z,10.89
2023-03-10T04:58:54.857Z,10.91
2023-03-10T05:01:25.458Z,10.92
2023-03-10T05:04:00.222Z,10.93
2023-03-10T05:06:29.760Z,10.94
2023-03-10T05:09:06.488Z,10.95
2023-03-10T05:11:36.172Z,10.93
2023-03-10T05:14:05.022Z,10.93
2023-03-10T05:16:35.150Z,10.91
2023-03-10T05:19:03.497Z,10.90
2023-03-10T05:21:33.908Z,10.88
2023-03-10T05:24:03.284Z,10.85
2023-03-10T05:26:34.722Z,10.84
2023-03-10T05:29:04.043Z,10.81
2023-03-10T05:31:59.682Z,10.76
2023-03-10T05:34:33.235Z,10.70
2023-03-10T05:37:04.338Z,10.68
2023-03-10T05:39:33.090Z,10.66
2023-03-10T05:42:05.592Z,10.63
2023-03-10T05:44:36.220Z,10.60
2023-03-10T05:47:08.266Z,10.58
2023-03-10T05:49:38.734Z,10.55
2023-03-10T05:52:08.557Z,10.52
2023-03-10T05:54:39.523Z,10.48
2023-03-10T05:57:08.142Z,10.51
2023-03-10T05:59:37.585Z,10.51
2023-03-10T06:02:07.706Z,10.53
2023-03-10T06:04:36.232Z,10.55
2023-03-10T06:07:05.087Z,10.57
2023-03-10T06:09:34.184Z,10.58
2023-03-10T06:12:02.746Z,10.59
2023-03-10T06:14:31.271Z,10.61
2023-03-10T06:16:59.803Z,10.61
2023-03-10T06:19:29.385Z,10.62
2023-03-10T06:21:57.906Z,10.63
2023-03-10T06:24:26.518Z,10.62
2023-03-10T06:26:55.009Z,10.64
2023-03-10T06:29:23.514Z,10.64
2023-03-10T06:31:52.548Z,10.67
2023-03-10T06:34:21.162Z,10.68
2023-03-10T06:36:50.750Z,10.72
2023-03-10T06:39:19.277Z,10.74
2023-03-10T06:41:47.966Z,10.75
2023-03-10T06:44:18.816Z,10.76
2023-03-10T06:46:47.510Z,10.80
2023-03-10T06:49:15.764Z,10.84
2023-03-10T06:51:43.970Z,10.90
2023-03-10T06:54:13.574Z,11.00
2023-03-10T06:56:42.119Z,11.10
2023-03-10T06:59:10.862Z,11.18
2023-03-10T07:01:39.512Z,11.27
2023-03-10T07:04:08.177Z,11.35
2023-03-10T07:06:36.701Z,11.42
2023-03-10T07:09:05.742Z,11.48
2023-03-10T07:11:35.396Z,11.51
2023-03-10T07:14:03.900Z,11.58
2023-03-10T07:16:32.645Z,11.64
2023-03-10T07:19:01.202Z,11.71
2023-03-10T07:21:29.722Z,11.77
2023-03-10T07:23:58.962Z,11.81
2023-03-10T07:26:27.688Z,11.84
2023-03-10T07:28:57.326Z,11.84
2023-03-10T07:31:26.198Z,11.82
2023-03-10T07:33:54.804Z,11.77
2023-03-10T07:36:24.191Z,11.73
2023-03-10T07:38:52.571Z,11.70
2023-03-10T07:41:22.720Z,11.65
2023-03-10T07:43:54.880Z,11.61
2023-03-10T07:46:24.701Z,11.57
2023-03-10T07:48:53.845Z,11.55
2023-03-10T07:51:22.518Z,11.52
2023-03-10T07:53:51.086Z,11.50
2023-03-10T07:56:19.890Z,11.47
2023-03-10T07:58:48.402Z,11.42
2023-03-10T08:01:18.925Z,11.33
2023-03-10T08:03:49.295Z,11.00
2023-03-10T08:06:20.481Z,10.66
2023-03-10T08:08:49.026Z,10.34
2023-03-10T08:11:18.361Z,10.11
2023-03-10T08:13:47.576Z,9.96
2023-03-10T08:16:17.572Z,9.90
2023-03-10T08:18:47.844Z,9.84
2023-03-10T08:21:16.309Z,9.82
2023-03-10T08:23:44.985Z,9.83
2023-03-10T08:26:16.328Z,9.84
2023-03-10T08:28:45.401Z,9.85
2023-03-10T08:31:17.317Z,9.89
2023-03-10T08:33:46.968Z,9.91
2023-03-10T08:36:19.900Z,9.93
2023-03-10T08:38:49.406Z,9.96
2023-03-10T08:41:20.803Z,10.03
2023-03-10T08:43:50.369Z,10.07
2023-03-10T08:46:20.560Z,10.12
2023-03-10T08:48:49.672Z,10.15
2023-03-10T08:51:20.383Z,10.21
2023-03-10T08:53:50.356Z,10.30
2023-03-10T08:56:21.635Z,10.37
2023-03-10T08:58:50.586Z,10.43
2023-03-10T09:01:20.114Z,10.51
2023-03-10T09:03:48.358Z,10.68
2023-03-10T09:06:18.400Z,11.04
2023-03-10T09:08:48.254Z,11.53
2023-03-10T09:11:19.943Z,11.72
2023-03-10T09:13:49.215Z,11.72
2023-03-10T09:16:18.009Z,11.61
2023-03-10T09:18:46.542Z,11.49
2023-03-10T09:21:17.140Z,11.37
2023-03-10T09:23:50.084Z,11.30
2023-03-10T09:26:18.627Z,11.23
2023-03-10T09:28:49.304Z,11.18
2023-03-10T09:31:21.830Z,11.13
2023-03-10T09:33:50.425Z,11.11
2023-03-10T09:36:19.750Z,11.03
2023-03-10T09:38:49.461Z,10.88
2023-03-10T09:41:50.158Z,10.67
2023-03-10T09:44:32.217Z,10.37
2023-03-10T09:47:23.285Z,10.06
2023-03-10T09:50:10.111Z,9.88
2023-03-10T09:52:46.406Z,9.80
2023-03-10T09:55:25.689Z,9.74
2023-03-10T09:57:57.547Z,9.70
2023-03-10T10:00:31.304Z,9.67
2023-03-10T10:03:09.064Z,9.65
2023-03-10T10:05:39.401Z,9.68
2023-03-10T10:08:21.182Z,9.75
2023-03-10T10:10:54.892Z,9.82
2023-03-10T10:13:26.483Z,9.89
2023-03-10T10:16:21.448Z,9.92
2023-03-10T10:18:58.198Z,9.93
2023-03-10T10:21:42.569Z,9.98
2023-03-10T10:24:11.742Z,10.04
2023-03-10T10:26:41.320Z,10.13
2023-03-10T10:29:17.763Z,10.19
2023-03-10T10:32:07.684Z,10.27
2023-03-10T10:34:37.694Z,10.37
2023-03-10T10:37:29.341Z,10.40
2023-03-10T10:40:00.773Z,10.37
2023-03-10T10:42:32.632Z,10.15
2023-03-10T10:45:03.941Z,10.02
2023-03-10T10:47:35.318Z,9.92
2023-03-10T10:50:20.703Z,9.95
2023-03-10T10:52:53.152Z,10.10
2023-03-10T10:55:29.509Z,10.15
2023-03-10T10:58:02.774Z,10.09
2023-03-10T11:00:33.454Z,10.09
2023-03-10T11:03:02.378Z,10.13
2023-03-10T11:05:37.528Z,10.19
2023-03-10T11:08:22.344Z,10.30
2023-03-10T11:11:00.215Z,10.37
2023-03-10T11:13:40.317Z,10.52
2023-03-10T11:16:19.393Z,10.63
2023-03-10T11:18:53.778Z,10.69
2023-03-10T11:21:27.932Z,10.74
2023-03-10T11:24:09.225Z,10.80
2023-03-10T11:26:52.889Z,10.86
2023-03-10T11:29:39.545Z,10.91
2023-03-10T11:32:19.821Z,10.94
2023-03-10T11:34:53.874Z,10.96
2023-03-10T11:37:31.777Z,10.95
2023-03-10T11:40:19.723Z,10.93
2023-03-10T11:42:57.597Z,10.93
2023-03-10T11:45:35.842Z,10.94
2023-03-10T11:48:21.303Z,10.95
2023-03-10T11:50:53.778Z,11.01
2023-03-10T11:53:35.093Z,11.05
2023-03-10T11:56:05.177Z,11.05
2023-03-10T11:58:43.464Z,10.96
2023-03-10T12:01:18.175Z,10.88
2023-03-10T12:03:55.586Z,10.81
2023-03-10T12:06:33.042Z,10.71
2023-03-10T12:09:03.972Z,10.64
2023-03-10T12:11:32.510Z,10.60
2023-03-10T12:14:03.305Z,10.60
2023-03-10T12:16:39.461Z,10.62
2023-03-10T12:19:08.545Z,10.63
2023-03-10T12:21:37.047Z,10.63
2023-03-10T12:24:27.215Z,10.64
2023-03-10T12:27:16.279Z,10.62
2023-03-10T12:29:45.631Z,10.64
2023-03-10T12:32:47.282Z,10.59
2023-03-10T12:35:55.148Z,10.47
2023-03-10T12:38:44.233Z,10.44
2023-03-10T12:41:14.104Z,10.44
2023-03-10T12:44:03.895Z,10.42
2023-03-10T12:46:45.104Z,10.35
2023-03-10T12:49:27.316Z,10.23
2023-03-10T12:52:08.288Z,10.13
2023-03-10T12:54:53.450Z,10.01
2023-03-10T12:57:27.344Z,9.92
2023-03-10T13:00:06.738Z,9.82
2023-03-10T13:02:44.689Z,9.72
2023-03-10T13:05:25.909Z,9.62
2023-03-10T13:07:58.832Z,9.52
2023-03-10T13:10:31.150Z,9.45
2023-03-10T13:13:05.527Z,9.42
2023-03-10T13:15:35.477Z,9.40
2023-03-10T13:18:20.242Z,9.38
2023-03-10T13:20:50.986Z,9.37
2023-03-10T13:23:27.744Z,9.37
2023-03-10T13:25:58.303Z,9.40
2023-03-10T13:28:29.178Z,9.46
2023-03-10T13:31:20.565Z,9.49
2023-03-10T13:33:53.901Z,9.60
2023-03-10T13:36:38.123Z,9.70
2023-03-10T13:39:16.423Z,9.79
2023-03-10T13:41:48.300Z,9.88
2023-03-10T13:44:22.244Z,9.99
2023-03-10T13:46:53.966Z,10.08
2023-03-10T13:49:26.582Z,10.17
2023-03-10T13:51:58.375Z,10.26
2023-03-10T13:54:29.278Z,10.32
2023-03-10T13:57:03.323Z,10.37
2023-03-10T13:59:33.290Z,10.39
2023-03-10T14:02:03.047Z,10.42
2023-03-10T14:04:46.276Z,10.45
2023-03-10T14:07:19.352Z,10.54
2023-03-10T14:09:49.758Z,10.60
2023-03-10T14:12:37.427Z,10.65
2023-03-10T14:15:23.194Z,10.69
2023-03-10T14:17:53.774Z,10.74
2023-03-10T14:20:30.744Z,10.79
2023-03-10T14:23:01.056Z,10.84
2023-03-10T14:25:29.624Z,10.87
2023-03-10T14:27:59.925Z,10.88
2023-03-10T14:30:31.420Z,10.88
2023-03-10T14:33:01.924Z,10.86
2023-03-10T14:35:31.454Z,10.84
2023-03-10T14:38:01.028Z,10.81
2023-03-10T14:40:29.723Z,10.78
2023-03-10T14:43:02.449Z,10.74
2023-03-10T14:45:33.884Z,10.72
2023-03-10T14:48:05.922Z,10.68
2023-03-10T14:50:35.711Z,10.64
2023-03-10T14:53:10.197Z,10.63
2023-03-10T14:55:39.395Z,10.60
2023-03-10T14:58:08.894Z,10.58
2023-03-10T15:00:37.622Z,10.56
2023-03-10T15:03:06.478Z,10.56
2023-03-10T15:05:47.827Z,10.54
2023-03-10T15:08:19.581Z,10.52
2023-03-10T15:10:50.916Z,10.55
2023-03-10T15:13:20.696Z,10.52
2023-03-10T15:15:50.118Z,10.47
2023-03-10T15:18:21.563Z,10.43
2023-03-10T15:20:50.587Z,10.38
2023-03-10T15:23:22.299Z,10.33
2023-03-10T15:25:51.901Z,10.27
2023-03-10T15:28:20.108Z,10.20
2023-03-10T15:30:49.109Z,10.14
2023-03-10T15:33:17.778Z,10.10
2023-03-10T15:35:47.066Z,10.04
2023-03-10T15:38:16.340Z,10.02
2023-03-10T15:40:46.060Z,10.00
2023-03-10T15:43:14.712Z,9.97
2023-03-10T15:45:46.621Z,9.93
2023-03-10T15:48:15.160Z,9.89
2023-03-10T15:50:43.850Z,9.81
2023-03-10T15:53:12.457Z,9.76
2023-03-10T15:55:42.116Z,9.77
2023-03-10T15:58:12.998Z,9.77
2023-03-10T16:00:43.744Z,9.75
2023-03-10T16:03:17.718Z,9.74
2023-03-10T16:05:50.300Z,9.76
2023-03-10T16:08:19.665Z,9.79
2023-03-10T16:10:54.501Z,9.81
2023-03-10T16:13:24.918Z,9.81
2023-03-10T16:15:53.653Z,9.78
2023-03-10T16:18:22.387Z,9.76
2023-03-10T16:20:58.478Z,9.74
2023-03-10T16:23:27.438Z,9.73
2023-03-10T16:26:12.460Z,9.70
2023-03-10T16:28:44.446Z,9.64
2023-03-10T16:31:15.758Z,9.63
2023-03-10T16:33:44.482Z,9.57
2023-03-10T16:36:15.912Z,9.49
2023-03-10T16:38:45.249Z,9.40
2023-03-10T16:41:14.334Z,9.32
2023-03-10T16:43:44.622Z,9.23
2023-03-10T16:46:17.138Z,9.20
2023-03-10T16:48:49.267Z,9.16
2023-03-10T16:51:26.017Z,9.15
2023-03-10T16:53:57.201Z,9.14
2023-03-10T16:56:26.736Z,9.15
2023-03-10T16:58:57.616Z,9.12
2023-03-10T17:01:26.199Z,9.10
2023-03-10T17:03:55.520Z,9.08
2023-03-10T17:06:27.103Z,9.03
2023-03-10T17:08:56.473Z,8.99
2023-03-10T17:11:27.398Z,8.96
2023-03-10T17:13:59.731Z,8.95
2023-03-10T17:16:31.203Z,8.92
2023-03-10T17:19:01.867Z,8.89
2023-03-10T17:21:33.283Z,8.87
2023-03-10T17:24:02.055Z,8.84
2023-03-10T17:26:31.922Z,8.81
2023-03-10T17:29:01.552Z,8.78
2023-03-10T17:31:30.544Z,8.74
2023-03-10T17:34:01.900Z,8.65
2023-03-10T17:36:30.552Z,8.59
2023-03-10T17:39:01.260Z,8.52
2023-03-10T17:41:31.400Z,8.45
2023-03-10T17:44:01.271Z,8.36
2023-03-10T17:46:31.567Z,8.29
2023-03-10T17:49:00.536Z,8.20
2023-03-10T17:51:31.622Z,8.16
2023-03-10T17:54:02.361Z,8.14
2023-03-10T17:56:30.965Z,8.11
2023-03-10T17:59:00.967Z,8.09
2023-03-10T18:01:31.372Z,8.05
2023-03-10T18:04:01.854Z,8.03
2023-03-10T18:06:33.121Z,8.00
2023-03-10T18:09:05.616Z,7.99
2023-03-10T18:11:35.224Z,7.99
2023-03-10T18:14:05.275Z,7.96
2023-03-10T18:16:36.126Z,7.96
2023-03-10T18:19:05.119Z,7.93
2023-03-10T18:21:33.378Z,7.92
2023-03-10T18:24:01.960Z,7.89
2023-03-10T18:26:31.382Z,7.86
2023-03-10T18:29:00.445Z,7.85
2023-03-10T18:31:34.442Z,7.81
2023-03-10T18:34:03.366Z,7.76
2023-03-10T18:36:32.896Z,7.75
2023-03-10T18:39:03.874Z,7.69
2023-03-10T18:41:32.787Z,7.49
2023-03-10T18:44:01.589Z,7.35
2023-03-10T18:46:31.459Z,7.20
2023-03-10T18:49:00.017Z,7.09
2023-03-10T18:51:29.548Z,6.98
2023-03-10T18:53:58.189Z,6.88
2023-03-10T18:56:28.878Z,6.80
2023-03-10T18:58:57.651Z,6.70
2023-03-10T19:01:26.812Z,6.62
2023-03-10T19:03:56.667Z,6.53
2023-03-10T19:06:30.048Z,6.45
2023-03-10T19:08:58.643Z,6.37
2023-03-10T19:11:27.763Z,6.30
2023-03-10T19:13:56.426Z,6.23
2023-03-10T19:16:25.009Z,6.14
2023-03-10T19:18:54.064Z,6.09
2023-03-10T19:21:24.186Z,6.02
2023-03-10T19:23:52.741Z,5.94
2023-03-10T19:26:21.210Z,5.89
2023-03-10T19:28:49.519Z,5.85
2023-03-10T19:31:18.333Z,5.79
2023-03-10T19:33:46.712Z,5.75
2023-03-10T19:36:16.487Z,5.70
2023-03-10T19:38:46.498Z,5.68
2023-03-10T19:41:17.278Z,5.64
2023-03-10T19:43:47.211Z,5.59
2023-03-10T19:46:16.612Z,5.56
2023-03-10T19:48:45.574Z,5.52
2023-03-10T19:51:21.965Z,5.46
2023-03-10T19:53:52.929Z,5.44
2023-03-10T19:56:22.806Z,5.43
2023-03-10T19:58:51.668Z,5.39
2023-03-10T20:01:24.220Z,5.37
2023-03-10T20:03:54.268Z,5.34
2023-03-10T20:06:23.188Z,5.30
2023-03-10T20:08:54.432Z,5.25
2023-03-10T20:11:23.806Z,5.24
2023-03-10T20:13:54.640Z,5.22
2023-03-10T20:16:24.174Z,5.20
2023-03-10T20:18:53.075Z,5.19
2023-03-10T20:21:21.886Z,5.17
2023-03-10T20:23:52.133Z,5.16
2023-03-10T20:26:20.779Z,5.14
2023-03-10T20:28:50.590Z,5.12
2023-03-10T20:31:21.402Z,5.12
2023-03-10T20:33:50.212Z,5.11
2023-03-10T20:36:19.294Z,5.10
2023-03-10T20:38:48.381Z,5.09
2023-03-10T20:41:19.695Z,5.07
2023-03-10T20:43:48.325Z,5.03
2023-03-10T20:46:19.280Z,5.02
2023-03-10T20:48:50.635Z,5.01
2023-03-10T20:51:19.519Z,4.99
2023-03-10T20:53:48.065Z,4.98
2023-03-10T20:56:19.057Z,4.95
2023-03-10T20:58:47.648Z,4.95
2023-03-10T21:01:17.464Z,4.94
2023-03-10T21:03:46.098Z,4.94
2023-03-10T21:06:14.639Z,4.93
2023-03-10T21:08:43.158Z,4.90
2023-03-10T21:11:11.827Z,4.85
2023-03-10T21:13:41.750Z,4.83
2023-03-10T21:16:10.414Z,4.80
2023-03-10T21:18:39.157Z,4.78
2023-03-10T21:21:09.508Z,4.77
2023-03-10T21:23:43.490Z,4.74
2023-03-10T21:26:13.574Z,4.72
2023-03-10T21:28:43.494Z,4.71
2023-03-10T21:31:12.636Z,4.71
2023-03-10T21:33:42.620Z,4.71
2023-03-10T21:36:15.299Z,4.72
2023-03-10T21:38:44.269Z,4.73
2023-03-10T21:41:15.362Z,4.71
2023-03-10T21:43:45.034Z,4.72
2023-03-10T21:46:13.810Z,4.74
2023-03-10T21:48:42.853Z,4.73
2023-03-10T21:51:14.182Z,4.72
2023-03-10T21:53:42.910Z,4.70
2023-03-10T21:56:11.885Z,4.69
2023-03-10T21:58:40.499Z,4.67
2023-03-10T22:01:10.256Z,4.65
2023-03-10T22:03:38.525Z,4.65
2023-03-10T22:06:07.300Z,4.64
2023-03-10T22:08:37.748Z,4.63
2023-03-10T22:11:08.397Z,4.63
2023-03-10T22:13:38.645Z,4.64
2023-03-10T22:16:10.588Z,4.62
2023-03-10T22:18:39.222Z,4.60
2023-03-10T22:21:08.989Z,4.57
2023-03-10T22:23:37.521Z,4.56
2023-03-10T22:26:06.066Z,4.52
2023-03-10T22:28:34.678Z,4.49
2023-03-10T22:31:06.001Z,4.47
2023-03-10T22:33:37.933Z,4.46
2023-03-10T22:36:08.729Z,4.44
2023-03-10T22:38:37.282Z,4.45
2023-03-10T22:41:11.737Z,4.45
2023-03-10T22:43:39.965Z,4.42
2023-03-10T22:46:11.509Z,4.42
2023-03-10T22:48:42.134Z,4.39
2023-03-10T22:51:14.599Z,4.39
2023-03-10T22:53:42.874Z,4.38
2023-03-10T22:56:11.356Z,4.36
2023-03-10T22:58:39.914Z,4.34
2023-03-10T23:01:08.477Z,4.31
2023-03-10T23:03:37.327Z,4.26
2023-03-10T23:06:08.032Z,4.20
2023-03-10T23:08:37.510Z,4.15
2023-03-10T23:11:10.894Z,4.09
2023-03-10T23:13:39.665Z,4.02
2023-03-10T23:16:09.455Z,3.96
2023-03-10T23:18:38.378Z,3.87
2023-03-10T23:21:08.563Z,3.79
2023-03-10T23:23:39.174Z,3.69
2023-03-10T23:26:07.896Z,3.61
2023-03-10T23:28:36.471Z,3.53
2023-03-10T23:31:05.498Z,3.46
2023-03-10T23:33:34.217Z,3.38
2023-03-10T23:36:02.742Z,3.31
2023-03-10T23:38:32.636Z,3.26
2023-03-10T23:41:01.256Z,3.20
2023-03-10T23:43:29.827Z,3.13
2023-03-10T23:45:58.474Z,3.06
2023-03-10T23:48:27.167Z,2.98
2023-03-10T23:50:55.774Z,2.95
2023-03-10T23:53:24.496Z,2.93
2023-03-10T23:55:56.748Z,2.90
2023-03-10T23:58:25.769Z,2.84
